createdAt,value
2018-07-25T17:27:49.664Z,29.50
2018-07-25T17:30:53.326Z,29.60
2018-07-25T17:37:00.453Z,29.50
2018-07-25T17:40:05.928Z,29.70
2018-07-25T17:43:09.646Z,29.60
2018-07-25T17:46:12.817Z,29.50
2018-07-25T17:49:16.182Z,29.60
2018-07-25T17:52:20.984Z,29.50
2018-07-25T17:55:31.189Z,29.40
2018-07-25T17:58:34.622Z,29.50
2018-07-25T18:01:38.095Z,29.20
2018-07-25T18:04:41.340Z,29.40
2018-07-25T18:07:45.044Z,29.40
2018-07-25T18:10:48.501Z,29.50
2018-07-25T18:13:57.677Z,29.40
2018-07-25T18:17:01.019Z,29.40
2018-07-25T18:20:06.031Z,29.30
2018-07-25T18:23:09.350Z,29.30
2018-07-25T18:26:12.891Z,29.30
2018-07-25T18:29:16.127Z,29.30
2018-07-25T18:32:19.135Z,29.30
2018-07-25T18:35:22.121Z,29.30
2018-07-25T18:38:25.258Z,29.30
2018-07-25T18:41:28.542Z,29.30
2018-07-25T18:44:31.705Z,29.20
2018-07-25T18:47:34.886Z,29.10
2018-07-25T18:50:38.132Z,29.00
2018-07-25T18:53:41.553Z,29.10
2018-07-25T18:56:44.761Z,29.00
2018-07-25T18:59:47.929Z,29.00
2018-07-25T19:02:50.924Z,28.90
2018-07-25T19:05:54.078Z,28.90
2018-07-25T19:08:57.438Z,28.80
2018-07-25T19:12:00.781Z,28.80
2018-07-25T19:15:09.987Z,28.80
2018-07-25T19:21:15.918Z,28.80
2018-07-25T19:24:19.043Z,28.70
2018-07-25T19:27:22.433Z,28.60
2018-07-25T19:30:25.680Z,28.60
2018-07-25T19:33:28.701Z,28.50
2018-07-25T19:36:31.844Z,28.60
2018-07-25T19:39:36.477Z,28.50
2018-07-25T19:42:39.513Z,28.50
2018-07-25T19:45:42.869Z,28.50
2018-07-25T19:48:46.124Z,28.50
2018-07-25T19:51:49.224Z,28.50
2018-07-25T19:54:52.398Z,28.40
2018-07-25T19:57:55.423Z,28.30
2018-07-25T20:00:58.777Z,28.30
2018-07-25T20:04:02.032Z,28.30
2018-07-25T20:07:06.023Z,28.30
2018-07-25T20:10:09.305Z,28.30
2018-07-25T20:13:12.635Z,28.20
2018-07-25T20:16:15.985Z,28.20
2018-07-25T20:19:26.026Z,28.20
2018-07-25T20:22:29.462Z,28.10
2018-07-25T20:25:32.593Z,28.10
2018-07-25T20:28:35.838Z,28.10
2018-07-25T20:31:39.085Z,27.80
2018-07-25T20:34:42.521Z,27.50
2018-07-25T20:37:45.787Z,27.20
2018-07-25T20:40:49.271Z,27.00
2018-07-25T20:43:52.454Z,26.90
2018-07-25T20:46:56.462Z,26.70
2018-07-25T20:49:59.695Z,26.90
2018-07-25T20:53:03.611Z,26.70
2018-07-25T20:56:07.477Z,26.60
2018-07-25T20:59:12.561Z,26.80
2018-07-25T21:02:16.355Z,26.90
2018-07-25T21:05:20.134Z,26.80
2018-07-25T21:08:24.334Z,26.80
2018-07-25T21:11:28.100Z,26.70
2018-07-25T21:14:32.481Z,26.80
2018-07-25T21:17:36.325Z,26.50
2018-07-25T21:20:41.345Z,26.60
2018-07-25T21:23:46.577Z,26.50
2018-07-25T21:26:50.811Z,26.60
2018-07-25T21:29:57.342Z,26.60
2018-07-25T21:33:09.439Z,26.70
2018-07-25T21:36:12.824Z,26.60
2018-07-25T21:39:16.325Z,26.60
2018-07-25T21:42:21.142Z,26.50
2018-07-25T21:45:25.420Z,26.40
2018-07-25T21:48:29.644Z,26.30
2018-07-25T21:54:37.462Z,26.30
2018-07-25T21:57:41.186Z,26.40
2018-07-25T22:01:10.496Z,26.40
2018-07-25T22:04:14.977Z,26.20
2018-07-25T22:07:18.954Z,26.30
2018-07-25T22:10:25.216Z,26.30
2018-07-25T22:13:28.522Z,26.30
2018-07-25T22:16:31.777Z,26.20
2018-07-25T22:19:37.413Z,26.10
2018-07-25T22:22:42.647Z,26.30
2018-07-25T22:25:47.542Z,26.20
2018-07-25T22:28:51.610Z,26.00
2018-07-25T22:31:57.566Z,25.90
2018-07-25T22:35:01.720Z,25.90
2018-07-25T22:38:05.467Z,26.20
2018-07-25T22:44:12.822Z,26.00
2018-07-25T22:47:16.726Z,26.00
2018-07-25T22:50:20.798Z,26.20
2018-07-25T22:53:25.119Z,26.00
2018-07-25T22:56:28.874Z,26.00
2018-07-25T22:59:33.336Z,25.90
2018-07-25T23:02:36.836Z,26.00
2018-07-25T23:05:41.191Z,25.80
2018-07-25T23:08:44.635Z,25.90
2018-07-25T23:11:54.619Z,25.60
2018-07-25T23:14:58.056Z,26.20
2018-07-25T23:18:01.566Z,25.80
2018-07-25T23:21:04.952Z,25.70
2018-07-25T23:24:08.460Z,25.90
2018-07-25T23:27:11.916Z,25.80
2018-07-25T23:30:15.881Z,25.70
2018-07-25T23:33:20.407Z,25.60
2018-07-25T23:36:23.879Z,25.60
2018-07-25T23:39:27.194Z,25.60
2018-07-25T23:42:30.562Z,25.60
2018-07-25T23:48:37.152Z,25.50
2018-07-25T23:51:40.963Z,25.50
2018-07-25T23:54:44.388Z,25.40
2018-07-25T23:57:47.767Z,25.40
